createdAt,value
2022-12-25T00:02:14.904Z,91357.84
2022-12-25T00:04:41.265Z,91349.03
2022-12-25T00:07:07.555Z,91355.03
2022-12-25T00:09:33.895Z,91357.81
2022-12-25T00:12:00.178Z,91359.56
2022-12-25T00:14:26.542Z,91358.38
2022-12-25T00:16:52.828Z,91354.31
2022-12-25T00:19:19.102Z,91358.03
2022-12-25T00:21:45.383Z,91361.19
2022-12-25T00:24:11.693Z,91363.84
2022-12-25T00:26:39.135Z,91362.75
2022-12-25T00:29:05.507Z,91367.00
2022-12-25T00:31:31.940Z,91364.00
2022-12-25T00:33:58.247Z,91366.66
2022-12-25T00:36:24.610Z,91362.41
2022-12-25T00:38:50.913Z,91370.50
2022-12-25T00:41:39.700Z,91364.34
2022-12-25T00:44:06.449Z,91367.47
2022-12-25T00:46:32.806Z,91372.41
2022-12-25T00:49:00.052Z,91370.69
2022-12-25T00:51:26.339Z,91367.72
2022-12-25T00:53:52.619Z,91370.69
2022-12-25T00:56:18.920Z,91380.69
2022-12-25T00:58:46.015Z,91379.47
2022-12-25T01:01:12.403Z,91373.50
2022-12-25T01:03:38.732Z,91378.78
2022-12-25T01:06:05.851Z,91377.19
2022-12-25T01:08:33.080Z,91382.63
2022-12-25T01:11:00.174Z,91379.47
2022-12-25T01:13:26.784Z,91382.25
2022-12-25T01:15:54.198Z,91383.84
2022-12-25T01:18:20.699Z,91385.28
2022-12-25T01:20:47.143Z,91391.28
2022-12-25T01:23:13.476Z,91388.28
2022-12-25T01:25:39.767Z,91393.41
2022-12-25T01:28:06.126Z,91387.75
2022-12-25T01:30:32.480Z,91387.59
2022-12-25T01:32:58.799Z,91386.34
2022-12-25T01:35:25.060Z,91384.22
2022-12-25T01:37:51.442Z,91384.06
2022-12-25T01:40:17.779Z,91389.88
2022-12-25T01:42:44.052Z,91390.91
2022-12-25T01:45:28.803Z,91396.69
2022-12-25T01:47:55.100Z,91398.97
2022-12-25T01:50:21.390Z,91402.38
2022-12-25T01:52:47.792Z,91396.38
2022-12-25T01:55:14.095Z,91396.53
2022-12-25T01:57:40.381Z,91397.56
2022-12-25T02:00:06.966Z,91397.94
2022-12-25T02:02:33.526Z,91397.41
2022-12-25T02:05:01.536Z,91402.00
2022-12-25T02:07:27.838Z,91398.44
2022-12-25T02:09:54.145Z,91394.91
2022-12-25T02:12:30.449Z,91392.97
2022-12-25T02:15:04.632Z,91400.88
2022-12-25T02:17:42.582Z,91396.13
2022-12-25T02:20:27.970Z,91399.47
2022-12-25T02:22:57.521Z,91386.97
2022-12-25T02:25:31.338Z,91390.66
2022-12-25T02:28:11.008Z,91381.16
2022-12-25T02:30:39.674Z,91384.53
2022-12-25T02:33:51.128Z,91389.63
2022-12-25T02:36:19.061Z,91382.94
2022-12-25T02:39:04.060Z,91381.38
2022-12-25T02:41:31.307Z,91385.22
2022-12-25T02:44:16.347Z,91384.19
2022-12-25T02:47:01.009Z,91385.97
2022-12-25T02:49:45.787Z,91376.25
2022-12-25T02:52:31.019Z,91367.66
2022-12-25T02:55:17.848Z,91376.63
2022-12-25T02:58:03.625Z,91359.53
2022-12-25T03:00:49.179Z,91369.63
2022-12-25T03:03:34.171Z,91371.56
2022-12-25T03:06:19.725Z,91367.00
2022-12-25T03:08:47.351Z,91362.59
2022-12-25T03:11:31.604Z,91360.81
2022-12-25T03:14:18.921Z,91358.19
2022-12-25T03:16:51.706Z,91357.50
2022-12-25T03:19:36.813Z,91359.59
2022-12-25T03:22:21.792Z,91351.50
2022-12-25T03:25:06.961Z,91347.81
2022-12-25T03:27:33.466Z,91355.19
2022-12-25T03:30:18.512Z,91347.81
2022-12-25T03:32:59.183Z,91349.59
2022-12-25T03:35:34.641Z,91337.28
2022-12-25T03:38:29.775Z,91332.69
2022-12-25T03:41:20.896Z,91334.78
2022-12-25T03:44:08.713Z,91327.38
2022-12-25T03:46:54.048Z,91329.84
2022-12-25T03:49:41.901Z,91327.06
2022-12-25T03:52:26.591Z,91322.47
2022-12-25T03:55:11.637Z,91317.53
2022-12-25T03:57:56.753Z,91324.94
2022-12-25T04:00:41.702Z,91319.31
2022-12-25T04:03:26.645Z,91319.31
2022-12-25T04:06:11.305Z,91316.16
2022-12-25T04:08:56.117Z,91317.19
2022-12-25T04:11:40.819Z,91321.25
2022-12-25T04:14:25.585Z,91322.13
2022-12-25T04:17:10.374Z,91317.84
2022-12-25T04:19:55.272Z,91310.09
2022-12-25T04:22:40.180Z,91303.94
2022-12-25T04:25:25.359Z,91305.94
2022-12-25T04:28:10.122Z,91316.47
2022-12-25T04:30:55.014Z,91316.41
2022-12-25T04:33:39.789Z,91309.31
2022-12-25T04:36:12.489Z,91310.81
2022-12-25T04:38:38.936Z,91303.63
2022-12-25T04:41:05.234Z,91294.47
2022-12-25T04:43:31.531Z,91298.28
2022-12-25T04:45:58.410Z,91303.28
2022-12-25T04:48:25.073Z,91291.81
2022-12-25T04:50:51.392Z,91298.16
2022-12-25T04:53:17.667Z,91294.84
2022-12-25T04:55:43.955Z,91295.13
2022-12-25T04:58:10.223Z,91294.94
2022-12-25T05:00:36.505Z,91290.63
2022-12-25T05:03:03.050Z,91289.28
2022-12-25T05:05:29.441Z,91291.06
2022-12-25T05:07:56.297Z,91283.72
2022-12-25T05:10:22.583Z,91292.53
2022-12-25T05:12:48.862Z,91288.34
2022-12-25T05:15:15.221Z,91297.66
2022-12-25T05:17:41.551Z,91292.22
2022-12-25T05:20:07.924Z,91300.13
2022-12-25T05:22:34.212Z,91297.66
2022-12-25T05:25:00.477Z,91293.44
2022-12-25T05:27:26.742Z,91291.84
2022-12-25T05:29:53.055Z,91291.66
2022-12-25T05:32:19.361Z,91280.59
2022-12-25T05:34:45.658Z,91290.78
2022-12-25T05:37:12.072Z,91293.41
2022-12-25T05:39:38.361Z,91295.66
2022-12-25T05:42:04.705Z,91297.09
2022-12-25T05:44:30.998Z,91286.94
2022-12-25T05:46:57.341Z,91288.53
2022-12-25T05:49:23.714Z,91290.09
2022-12-25T05:51:49.981Z,91287.75
2022-12-25T05:54:16.871Z,91286.06
2022-12-25T05:56:43.132Z,91290.66
2022-12-25T05:59:09.650Z,91278.75
2022-12-25T06:01:35.996Z,91275.59
2022-12-25T06:04:07.020Z,91289.50
2022-12-25T06:06:36.568Z,91288.47
2022-12-25T06:09:02.842Z,91278.13
2022-12-25T06:11:29.130Z,91281.47
2022-12-25T06:13:55.698Z,91286.06
2022-12-25T06:16:22.030Z,91284.63
2022-12-25T06:18:48.929Z,91285.69
2022-12-25T06:21:15.291Z,91285.50
2022-12-25T06:23:41.685Z,91297.44
2022-12-25T06:26:08.896Z,91290.91
2022-12-25T06:28:35.348Z,91277.06
2022-12-25T06:31:27.918Z,91273.41
2022-12-25T06:33:54.298Z,91278.88
2022-12-25T06:36:21.741Z,91280.75
2022-12-25T06:38:48.006Z,91277.13
2022-12-25T06:41:15.430Z,91289.13
2022-12-25T06:43:41.715Z,91298.84
2022-12-25T06:46:09.486Z,91292.22
2022-12-25T06:48:35.891Z,91291.09
2022-12-25T06:51:02.837Z,91295.72
2022-12-25T06:53:33.506Z,91294.31
2022-12-25T06:56:04.424Z,91294.09
2022-12-25T06:58:30.703Z,91290.22
2022-12-25T07:00:57.926Z,91282.78
2022-12-25T07:03:24.367Z,91288.84
2022-12-25T07:05:50.852Z,91286.41
2022-12-25T07:08:17.120Z,91301.19
2022-12-25T07:10:43.399Z,91306.09
2022-12-25T07:13:09.705Z,91299.78
2022-12-25T07:15:36.032Z,91303.81
2022-12-25T07:18:02.298Z,91304.63
2022-12-25T07:20:29.944Z,91313.47
2022-12-25T07:22:56.277Z,91309.44
2022-12-25T07:25:22.550Z,91311.75
2022-12-25T07:27:48.854Z,91316.16
2022-12-25T07:30:15.134Z,91308.91
2022-12-25T07:32:44.366Z,91308.75
2022-12-25T07:35:15.453Z,91314.38
2022-12-25T07:37:41.903Z,91309.09
2022-12-25T07:40:08.517Z,91319.63
2022-12-25T07:42:34.803Z,91318.25
2022-12-25T07:45:01.128Z,91318.59
2022-12-25T07:47:27.395Z,91320.00
2022-12-25T07:49:53.686Z,91317.91
2022-12-25T07:52:20.032Z,91313.50
2022-12-25T07:54:46.313Z,91324.25
2022-12-25T07:57:12.584Z,91317.22
2022-12-25T07:59:38.858Z,91313.84
2022-12-25T08:02:05.281Z,91320.03
2022-12-25T08:04:31.743Z,91321.09
2022-12-25T08:06:58.027Z,91319.69
2022-12-25T08:09:24.402Z,91324.41
2022-12-25T08:11:50.695Z,91322.50
2022-12-25T08:14:16.997Z,91321.44
2022-12-25T08:16:43.350Z,91322.84
2022-12-25T08:19:10.072Z,91316.50
2022-12-25T08:21:36.413Z,91325.13
2022-12-25T08:24:03.188Z,91328.66
2022-12-25T08:26:29.537Z,91330.38
2022-12-25T08:28:55.810Z,91339.72
2022-12-25T08:31:22.978Z,91332.81
2022-12-25T08:33:49.694Z,91332.81
2022-12-25T08:36:16.028Z,91328.91
2022-12-25T08:38:42.407Z,91338.09
2022-12-25T08:41:09.011Z,91336.91
2022-12-25T08:43:35.306Z,91339.22
2022-12-25T08:46:01.653Z,91339.56
2022-12-25T08:48:28.061Z,91346.94
2022-12-25T08:50:54.487Z,91342.16
2022-12-25T08:53:20.842Z,91338.28
2022-12-25T08:55:47.471Z,91336.13
2022-12-25T08:58:14.568Z,91331.56
2022-12-25T09:00:40.911Z,91328.91
2022-12-25T09:03:07.263Z,91322.91
2022-12-25T09:05:36.458Z,91330.13
2022-12-25T09:08:02.755Z,91327.81
2022-12-25T09:10:29.169Z,91337.16
2022-12-25T09:12:55.459Z,91326.88
2022-12-25T09:15:21.762Z,91343.50
2022-12-25T09:17:48.080Z,91330.28
2022-12-25T09:20:14.366Z,91329.88
2022-12-25T09:22:40.669Z,91343.25
2022-12-25T09:25:07.078Z,91341.75
2022-12-25T09:27:33.378Z,91346.38
2022-12-25T09:29:59.646Z,91353.59
2022-12-25T09:32:25.911Z,91346.34
2022-12-25T09:34:52.182Z,91344.91
2022-12-25T09:37:18.469Z,91351.69
2022-12-25T09:39:46.556Z,91344.06
2022-12-25T09:42:16.058Z,91349.66
2022-12-25T09:45:05.618Z,91340.28
2022-12-25T09:47:32.497Z,91328.09
2022-12-25T09:50:11.650Z,91328.22
2022-12-25T09:52:46.398Z,91326.81
2022-12-25T09:55:19.779Z,91325.66
2022-12-25T09:57:48.266Z,91334.28
2022-12-25T10:00:21.439Z,91326.47
